Terminal Aerodrome Forecast
Issued by NWS Cleveland, OH

Home | Current Version | Previous Version | Graphics & Text | Print | Product List | Glossary On
Versions: 1 2 3 4 5 6 7 8 9 10 11 12 13 14 15 16 17 18 19 20 21 22 23
000
FTUS41 KCLE 011700
TAFERI
TAF
KERI 011740Z 0118/0218 19005KT 5SM -SN BKN015 OVC025
      TEMPO 0118/0120 24006KT 2SM -SN OVC012
     FM012000 24007KT 2SM -SN BKN012 OVC025
     FM020100 25008KT 6SM -SN OVC015
     FM020600 26010KT P6SM OVC015
     FM021400 27010G18KT P6SM BKN020=

USA.gov is the U.S. government's official web portal to all federal, state and local government web resources and services.